Time;durP1;ratioP1;P1;durP2;ratioP2;P2;SDS_P1;SDS_P2;PMS_P1;PMS_P2;Temp;Humidity;BMP_temperature;BMP_pressure;BME280_temperature;BME280_humidity;BME280_pressure;Samples;Min_cycle;Max_cycle;Signal;HPM_P1;HPM_P2
2022/03/10 00:01:57;;;;;;;;;;;-0.10;99.90;;;;;;5016589;28;19921;-78
2022/03/10 00:04:22;;;;;;;;;;;-0.10;99.90;;;;;;5010744;28;20047;-79
2022/03/10 00:06:48;;;;;;;;;;;0.00;99.90;;;;;;5012592;28;19929;-78
2022/03/10 00:09:13;;;;;;;;;;;-0.10;99.90;;;;;;4986529;28;19983;-79
2022/03/10 00:11:40;;;;;;;;;;;-0.10;99.90;;;;;;5014288;28;19971;-78
2022/03/10 00:14:05;;;;;;;;;;;-0.10;99.90;;;;;;5014943;28;19932;-79
2022/03/10 00:16:31;;;;;;;;;;;-0.10;99.90;;;;;;5005283;28;19921;-78
2022/03/10 00:18:57;;;;;;;;;;;-0.10;99.90;;;;;;4994529;28;19913;-78
2022/03/10 00:21:22;;;;;;;;;;;0.00;99.90;;;;;;4994407;28;20012;-78
2022/03/10 00:23:48;;;;;;;;;;;0.00;99.90;;;;;;5012688;28;19917;-79
2022/03/10 00:26:13;;;;;;;;;;;-0.10;99.90;;;;;;5001704;28;19984;-78
2022/03/10 00:28:39;;;;;;;;;;;-0.10;99.90;;;;;;5031735;28;19963;-78
2022/03/10 00:31:05;;;;;;;;;;;-0.20;99.90;;;;;;4997100;28;19925;-79
2022/03/10 00:33:30;;;;;;;;;;;-0.30;99.90;;;;;;5011489;28;19921;-79
2022/03/10 00:35:56;;;;;;;;;;;-0.30;99.90;;;;;;5004251;28;20383;-78
2022/03/10 00:38:21;;;;;;;;;;;-0.30;99.90;;;;;;4994543;28;20011;-78
2022/03/10 00:40:47;;;;;;;;;;;-0.40;99.90;;;;;;5012168;28;19945;-79
2022/03/10 00:43:13;;;;;;;;;;;-0.40;99.90;;;;;;4994089;28;19917;-79
2022/03/10 00:45:39;;;;;;;;;;;-0.40;99.90;;;;;;5010683;28;19940;-78
2022/03/10 00:48:05;;;;;;;;;;;-0.40;99.90;;;;;;5018286;28;20268;-79
2022/03/10 00:50:30;;;;;;;;;;;-0.40;99.90;;;;;;4997111;28;19920;-79
2022/03/10 00:52:56;;;;;;;;;;;-0.40;99.90;;;;;;5021050;28;19913;-78
2022/03/10 00:55:22;;;;;;;;;;;-0.40;99.90;;;;;;5003633;28;20016;-78
2022/03/10 00:57:48;;;;;;;;;;;-0.40;99.90;;;;;;5015462;28;20367;-78
2022/03/10 01:00:15;;;;;;;;;;;-0.40;99.90;;;;;;4998215;28;20386;-78
2022/03/10 01:02:40;;;;;;;;;;;-0.50;99.90;;;;;;4998408;28;19948;-78
2022/03/10 01:05:08;;;;;;;;;;;-0.50;99.90;;;;;;5018948;28;19921;-78
2022/03/10 01:07:34;;;;;;;;;;;-0.50;99.90;;;;;;5004671;28;20331;-78
2022/03/10 01:10:00;;;;;;;;;;;-0.50;99.90;;;;;;5014795;28;19918;-78
2022/03/10 01:12:25;;;;;;;;;;;-0.50;99.90;;;;;;5013147;28;20445;-79
2022/03/10 01:14:51;;;;;;;;;;;-0.60;99.90;;;;;;5025911;28;19983;-78
2022/03/10 01:17:17;;;;;;;;;;;-0.60;99.90;;;;;;5014980;28;20522;-78
2022/03/10 01:19:42;;;;;;;;;;;-0.60;99.90;;;;;;4981183;28;19917;-78
2022/03/10 01:22:08;;;;;;;;;;;-0.70;99.90;;;;;;5011972;28;19944;-79
2022/03/10 01:24:34;;;;;;;;;;;-0.70;99.90;;;;;;4997899;28;20402;-78
2022/03/10 01:26:59;;;;;;;;;;;-0.70;99.90;;;;;;4997472;28;19968;-78
2022/03/10 01:29:25;;;;;;;;;;;-0.70;99.90;;;;;;5022996;28;19976;-78
2022/03/10 01:31:52;;;;;;;;;;;-0.80;99.90;;;;;;5015451;28;19913;-78
2022/03/10 01:34:17;;;;;;;;;;;-0.80;99.90;;;;;;5011741;28;19932;-78
2022/03/10 01:36:43;;;;;;;;;;;-0.80;99.90;;;;;;5014782;28;19976;-78
2022/03/10 01:39:08;;;;;;;;;;;-0.80;99.90;;;;;;4998539;28;19917;-78
2022/03/10 01:41:34;;;;;;;;;;;-0.80;99.90;;;;;;4997170;28;19913;-78
2022/03/10 01:44:02;;;;;;;;;;;-0.90;99.90;;;;;;5018885;28;19917;-78
2022/03/10 01:46:28;;;;;;;;;;;-0.90;99.90;;;;;;4997553;28;19949;-78
2022/03/10 01:48:54;;;;;;;;;;;-1.00;99.90;;;;;;5023733;28;19924;-78
2022/03/10 01:51:21;;;;;;;;;;;-1.00;99.90;;;;;;5022243;28;19967;-78
2022/03/10 01:53:50;;;;;;;;;;;-1.00;99.90;;;;;;5030203;28;20349;-78
2022/03/10 01:56:20;;;;;;;;;;;-1.00;99.90;;;;;;4995455;28;20397;-78
2022/03/10 01:58:46;;;;;;;;;;;-1.00;99.90;;;;;;5022232;28;20493;-78
2022/03/10 02:01:12;;;;;;;;;;;-1.00;99.90;;;;;;5026903;28;19991;-78
2022/03/10 02:03:38;;;;;;;;;;;-1.00;99.90;;;;;;5011705;28;20629;-78
2022/03/10 02:06:04;;;;;;;;;;;-1.00;99.90;;;;;;5015481;28;19913;-78
2022/03/10 02:11:14;;;;;;;;;;;-1.00;99.90;;;;;;5025670;28;19924;-78
2022/03/10 02:13:39;;;;;;;;;;;-1.00;99.90;;;;;;5014210;28;20280;-78
2022/03/10 02:18:54;;;;;;;;;;;-1.00;99.90;;;;;;5013585;28;20286;-78
2022/03/10 02:21:19;;;;;;;;;;;-1.00;99.90;;;;;;5013308;28;19925;-78
2022/03/10 02:23:45;;;;;;;;;;;-1.00;99.90;;;;;;5014680;28;19921;-78
2022/03/10 02:26:11;;;;;;;;;;;-1.00;99.90;;;;;;5014603;28;19967;-78
2022/03/10 02:28:37;;;;;;;;;;;-1.00;99.90;;;;;;5016707;28;19917;-78
2022/03/10 02:31:03;;;;;;;;;;;-1.00;99.90;;;;;;5017428;28;19920;-78
2022/03/10 02:33:28;;;;;;;;;;;-1.00;99.90;;;;;;5025774;28;20361;-78
2022/03/10 02:35:54;;;;;;;;;;;-1.00;99.90;;;;;;4998168;28;19922;-78
2022/03/10 02:38:19;;;;;;;;;;;-1.00;99.90;;;;;;5011284;28;19926;-78
2022/03/10 02:40:49;;;;;;;;;;;-1.00;99.90;;;;;;5015150;28;19918;-78
2022/03/10 02:43:15;;;;;;;;;;;-1.00;99.90;;;;;;5013788;28;20160;-78
2022/03/10 02:45:41;;;;;;;;;;;-1.10;99.90;;;;;;5015214;28;19996;-78
2022/03/10 02:48:06;;;;;;;;;;;-1.10;99.90;;;;;;5018455;28;20365;-78
2022/03/10 02:50:32;;;;;;;;;;;-1.10;99.90;;;;;;5023287;28;20029;-78
2022/03/10 02:52:57;;;;;;;;;;;-1.10;99.90;;;;;;5014270;28;19921;-79
2022/03/10 02:55:23;;;;;;;;;;;-1.10;99.90;;;;;;4998201;28;19917;-78
2022/03/10 02:57:49;;;;;;;;;;;-1.20;99.90;;;;;;5004014;28;19917;-78
2022/03/10 03:00:16;;;;;;;;;;;-1.20;99.90;;;;;;5018769;28;19921;-78
2022/03/10 03:02:42;;;;;;;;;;;-1.20;99.90;;;;;;5021746;28;20367;-78
2022/03/10 03:05:08;;;;;;;;;;;-1.20;99.90;;;;;;5017566;28;19937;-78
2022/03/10 03:07:34;;;;;;;;;;;-1.20;99.90;;;;;;5025598;28;19921;-78
2022/03/10 03:10:00;;;;;;;;;;;-1.30;99.90;;;;;;5014815;28;19913;-78
2022/03/10 03:12:26;;;;;;;;;;;-1.30;99.90;;;;;;5001976;28;20399;-78
2022/03/10 03:14:52;;;;;;;;;;;-1.30;99.90;;;;;;5020410;28;19917;-78
2022/03/10 03:17:17;;;;;;;;;;;-1.30;99.90;;;;;;5024065;28;20066;-78
2022/03/10 03:19:43;;;;;;;;;;;-1.20;99.90;;;;;;4997833;28;19949;-78
2022/03/10 03:22:09;;;;;;;;;;;-1.20;99.90;;;;;;5004445;28;19917;-78
2022/03/10 03:24:34;;;;;;;;;;;-1.20;99.90;;;;;;5017913;28;19917;-78
2022/03/10 03:27:03;;;;;;;;;;;-1.30;99.90;;;;;;5012287;28;19918;-78
2022/03/10 03:29:28;;;;;;;;;;;-1.40;99.90;;;;;;5023958;28;19917;-78
2022/03/10 03:31:54;;;;;;;;;;;-1.40;99.90;;;;;;5001428;28;19926;-78
2022/03/10 03:34:19;;;;;;;;;;;-1.40;99.90;;;;;;5011205;28;20004;-78
2022/03/10 03:36:45;;;;;;;;;;;-1.40;99.90;;;;;;5027545;28;19918;-79
2022/03/10 03:39:12;;;;;;;;;;;-1.50;99.90;;;;;;5020548;28;20375;-78
2022/03/10 03:41:38;;;;;;;;;;;-1.40;99.90;;;;;;4993825;28;19949;-78
2022/03/10 03:44:04;;;;;;;;;;;-1.50;99.90;;;;;;5015996;28;19921;-78
2022/03/10 03:46:29;;;;;;;;;;;-1.50;99.90;;;;;;5005447;28;19963;-78
2022/03/10 03:48:55;;;;;;;;;;;-1.50;99.90;;;;;;5013001;28;20376;-78
2022/03/10 03:51:21;;;;;;;;;;;-1.50;99.90;;;;;;5020101;28;19961;-78
2022/03/10 03:53:48;;;;;;;;;;;-1.50;99.90;;;;;;5013797;28;19921;-78
2022/03/10 03:56:13;;;;;;;;;;;-1.50;99.90;;;;;;4998332;28;19980;-78
2022/03/10 03:58:39;;;;;;;;;;;-1.60;99.90;;;;;;5017387;28;20399;-78
2022/03/10 04:01:05;;;;;;;;;;;-1.60;99.90;;;;;;5012453;28;19925;-78
2022/03/10 04:03:30;;;;;;;;;;;-1.50;99.90;;;;;;5013093;28;19925;-78
2022/03/10 04:05:56;;;;;;;;;;;-1.60;99.90;;;;;;5016222;28;19920;-78
2022/03/10 04:08:22;;;;;;;;;;;-1.60;99.90;;;;;;5017651;28;19917;-78
2022/03/10 04:10:47;;;;;;;;;;;-1.50;99.90;;;;;;5020115;28;19967;-78
2022/03/10 04:13:13;;;;;;;;;;;-1.60;99.90;;;;;;5003838;28;19914;-78
2022/03/10 04:15:38;;;;;;;;;;;-1.60;99.90;;;;;;4997144;28;19944;-78
2022/03/10 04:18:04;;;;;;;;;;;-1.60;99.90;;;;;;5023536;28;19929;-78
2022/03/10 04:20:30;;;;;;;;;;;-1.60;99.90;;;;;;5016952;28;19914;-78
2022/03/10 04:22:56;;;;;;;;;;;-1.60;99.90;;;;;;5010539;28;19921;-78
2022/03/10 04:25:22;;;;;;;;;;;-1.70;99.90;;;;;;5012152;28;19968;-78
2022/03/10 04:27:49;;;;;;;;;;;-1.70;99.90;;;;;;5009486;28;19920;-78
2022/03/10 04:30:14;;;;;;;;;;;-1.70;99.90;;;;;;5020121;28;19929;-78
2022/03/10 04:32:41;;;;;;;;;;;-1.70;99.90;;;;;;5017842;28;19917;-78
2022/03/10 04:35:08;;;;;;;;;;;-1.70;99.90;;;;;;5017363;28;19920;-78
2022/03/10 04:37:33;;;;;;;;;;;-1.70;99.90;;;;;;5007803;28;20043;-78
2022/03/10 04:39:59;;;;;;;;;;;-1.70;99.90;;;;;;5034163;28;20399;-78
2022/03/10 04:42:25;;;;;;;;;;;-1.80;99.90;;;;;;5016201;28;20024;-78
2022/03/10 04:44:50;;;;;;;;;;;-1.80;99.90;;;;;;5019745;28;19917;-78
2022/03/10 04:47:16;;;;;;;;;;;-1.70;99.90;;;;;;5016872;28;19921;-78
2022/03/10 04:49:41;;;;;;;;;;;-1.80;99.90;;;;;;5024004;28;19962;-77
2022/03/10 04:52:07;;;;;;;;;;;-1.80;99.90;;;;;;5017128;28;19917;-78
2022/03/10 04:54:33;;;;;;;;;;;-1.80;99.90;;;;;;5033076;28;20012;-77
2022/03/10 04:57:00;;;;;;;;;;;-1.80;99.90;;;;;;5014073;28;19921;-77
2022/03/10 04:59:26;;;;;;;;;;;-1.80;99.90;;;;;;5019271;28;19914;-78
2022/03/10 05:01:51;;;;;;;;;;;-1.80;99.90;;;;;;5026339;28;20449;-78
2022/03/10 05:04:17;;;;;;;;;;;-1.80;99.90;;;;;;5014361;28;20344;-78
2022/03/10 05:06:43;;;;;;;;;;;-1.80;99.90;;;;;;5013086;28;19918;-77
2022/03/10 05:09:08;;;;;;;;;;;-1.90;99.90;;;;;;5015333;28;19917;-78
2022/03/10 05:11:34;;;;;;;;;;;-1.90;99.90;;;;;;5025734;28;19921;-78
2022/03/10 05:13:59;;;;;;;;;;;-1.90;99.90;;;;;;5018752;28;19917;-78
2022/03/10 05:16:25;;;;;;;;;;;-1.90;99.90;;;;;;5027322;28;20027;-78
2022/03/10 05:18:50;;;;;;;;;;;-1.90;99.90;;;;;;5022929;28;19918;-78
2022/03/10 05:21:16;;;;;;;;;;;-2.00;99.90;;;;;;5023363;28;19917;-78
2022/03/10 05:23:42;;;;;;;;;;;-2.00;99.90;;;;;;5000296;28;19943;-78
2022/03/10 05:26:07;;;;;;;;;;;-2.00;99.90;;;;;;5016955;28;19954;-78
2022/03/10 05:28:33;;;;;;;;;;;-2.00;99.90;;;;;;5026656;28;19917;-77
2022/03/10 05:30:58;;;;;;;;;;;-2.00;99.90;;;;;;5018752;28;20357;-78
2022/03/10 05:33:24;;;;;;;;;;;-2.00;99.90;;;;;;5021747;28;19999;-78
2022/03/10 05:35:49;;;;;;;;;;;-2.00;99.90;;;;;;5026247;28;19918;-78
2022/03/10 05:38:15;;;;;;;;;;;-2.00;99.90;;;;;;5014988;28;19922;-77
2022/03/10 05:40:41;;;;;;;;;;;-2.00;99.90;;;;;;5017480;28;19922;-78
2022/03/10 05:43:07;;;;;;;;;;;-2.00;99.90;;;;;;5000219;28;19913;-77
2022/03/10 05:45:32;;;;;;;;;;;-2.00;99.90;;;;;;5014432;28;19917;-78
2022/03/10 05:47:58;;;;;;;;;;;-2.10;99.90;;;;;;5016946;28;19917;-77
2022/03/10 05:50:25;;;;;;;;;;;-2.10;99.90;;;;;;5024739;28;20018;-78
2022/03/10 05:52:51;;;;;;;;;;;-2.10;99.90;;;;;;5013704;28;19913;-77
2022/03/10 05:55:17;;;;;;;;;;;-2.10;99.90;;;;;;4996767;28;19972;-77
2022/03/10 05:57:43;;;;;;;;;;;-2.10;99.90;;;;;;5022166;28;20394;-77
2022/03/10 06:00:10;;;;;;;;;;;-2.10;99.90;;;;;;5025401;28;19920;-78
2022/03/10 06:02:38;;;;;;;;;;;-2.10;99.90;;;;;;5022270;28;19968;-77
2022/03/10 06:05:04;;;;;;;;;;;-2.10;99.90;;;;;;5014907;28;21408;-78
2022/03/10 06:07:30;;;;;;;;;;;-2.10;99.90;;;;;;5016958;28;20048;-77
2022/03/10 06:09:56;;;;;;;;;;;-2.00;99.90;;;;;;5018315;28;19913;-77
2022/03/10 06:12:26;;;;;;;;;;;-2.00;99.90;;;;;;5016876;28;20012;-77
2022/03/10 06:14:52;;;;;;;;;;;-1.90;99.90;;;;;;5021681;28;19918;-78
2022/03/10 06:17:18;;;;;;;;;;;-1.90;99.90;;;;;;5018581;28;19921;-77
2022/03/10 06:19:44;;;;;;;;;;;-1.80;99.90;;;;;;5014202;28;19971;-77
2022/03/10 06:22:10;;;;;;;;;;;-1.90;99.90;;;;;;5014336;28;19924;-77
2022/03/10 06:24:35;;;;;;;;;;;-1.80;99.90;;;;;;5013962;28;20350;-77
2022/03/10 06:27:01;;;;;;;;;;;-1.80;99.90;;;;;;5015721;28;19918;-78
2022/03/10 06:29:26;;;;;;;;;;;-1.80;99.90;;;;;;5013904;28;20016;-77
2022/03/10 06:31:52;;;;;;;;;;;-1.70;99.90;;;;;;5018311;28;19913;-77
2022/03/10 06:34:18;;;;;;;;;;;-1.70;99.90;;;;;;5012845;28;19936;-78
2022/03/10 06:36:43;;;;;;;;;;;-1.60;99.90;;;;;;5015658;28;19952;-77
2022/03/10 06:39:09;;;;;;;;;;;-1.60;99.90;;;;;;5018167;28;19917;-78
2022/03/10 06:41:35;;;;;;;;;;;-1.50;99.90;;;;;;5017331;28;19989;-77
2022/03/10 06:44:00;;;;;;;;;;;-1.40;99.90;;;;;;5015445;28;19917;-78
2022/03/10 06:46:26;;;;;;;;;;;-1.10;99.90;;;;;;5016975;28;20015;-78
2022/03/10 06:48:52;;;;;;;;;;;-0.80;99.90;;;;;;5011912;28;19920;-78
2022/03/10 06:51:17;;;;;;;;;;;-0.40;99.90;;;;;;5017808;28;19971;-78
2022/03/10 06:53:43;;;;;;;;;;;0.00;99.90;;;;;;5025188;28;19917;-78
2022/03/10 06:56:08;;;;;;;;;;;0.50;99.90;;;;;;5013516;28;19917;-78
2022/03/10 06:58:35;;;;;;;;;;;0.90;99.90;;;;;;5017215;28;19956;-78
2022/03/10 07:01:03;;;;;;;;;;;1.30;99.90;;;;;;5016331;28;20379;-78
2022/03/10 07:03:28;;;;;;;;;;;1.80;99.90;;;;;;5013856;28;19933;-79
2022/03/10 07:05:54;;;;;;;;;;;2.10;99.90;;;;;;4998704;28;19921;-78
2022/03/10 07:08:20;;;;;;;;;;;2.60;99.90;;;;;;5003652;28;19917;-78
2022/03/10 07:10:45;;;;;;;;;;;2.90;99.90;;;;;;5014829;28;20319;-78
2022/03/10 07:13:11;;;;;;;;;;;3.20;99.90;;;;;;5016150;28;19972;-78
2022/03/10 07:15:37;;;;;;;;;;;3.50;99.90;;;;;;5023110;28;19918;-79
2022/03/10 07:18:02;;;;;;;;;;;3.70;99.90;;;;;;5009002;28;21467;-79
2022/03/10 07:20:28;;;;;;;;;;;4.00;99.90;;;;;;5010612;28;20583;-78
2022/03/10 07:22:53;;;;;;;;;;;4.30;99.90;;;;;;5013068;28;19953;-77
2022/03/10 07:25:20;;;;;;;;;;;4.50;99.90;;;;;;5011327;28;19918;-78
2022/03/10 07:27:46;;;;;;;;;;;4.80;99.90;;;;;;5023838;28;20015;-78
2022/03/10 07:30:12;;;;;;;;;;;5.10;99.90;;;;;;5012720;28;19961;-78
2022/03/10 07:32:38;;;;;;;;;;;5.40;99.90;;;;;;5007860;28;19918;-77
2022/03/10 07:35:03;;;;;;;;;;;5.60;99.90;;;;;;5012680;28;19914;-78
2022/03/10 07:37:29;;;;;;;;;;;5.80;99.60;;;;;;5015932;28;20000;-78
2022/03/10 07:39:57;;;;;;;;;;;6.00;98.20;;;;;;5010405;28;19940;-77
2022/03/10 07:42:22;;;;;;;;;;;6.10;98.60;;;;;;5014089;28;19914;-78
2022/03/10 07:44:48;;;;;;;;;;;6.20;98.10;;;;;;5011031;28;20273;-78
2022/03/10 07:47:14;;;;;;;;;;;6.30;97.00;;;;;;5006258;28;19924;-79
2022/03/10 07:49:39;;;;;;;;;;;6.30;97.20;;;;;;5014724;28;19944;-78
2022/03/10 07:52:06;;;;;;;;;;;6.30;96.10;;;;;;5011693;28;19948;-78
2022/03/10 07:54:32;;;;;;;;;;;6.30;96.10;;;;;;5015285;28;20295;-78
2022/03/10 07:56:58;;;;;;;;;;;6.30;95.70;;;;;;5012402;28;19918;-77
2022/03/10 07:59:23;;;;;;;;;;;6.20;96.70;;;;;;5028191;28;19960;-78
2022/03/10 08:01:49;;;;;;;;;;;6.10;96.80;;;;;;4994109;28;20021;-77
2022/03/10 08:04:15;;;;;;;;;;;6.10;97.00;;;;;;5009955;28;19921;-78
2022/03/10 08:06:40;;;;;;;;;;;6.00;96.50;;;;;;5017469;28;20371;-78
2022/03/10 08:09:06;;;;;;;;;;;6.00;96.10;;;;;;5011615;28;19971;-78
2022/03/10 08:11:32;;;;;;;;;;;6.00;96.70;;;;;;5024338;28;19918;-79
2022/03/10 08:13:58;;;;;;;;;;;6.00;95.80;;;;;;5005847;28;19979;-78
2022/03/10 08:16:23;;;;;;;;;;;6.00;96.10;;;;;;5011314;28;19921;-78
2022/03/10 08:18:49;;;;;;;;;;;6.10;96.60;;;;;;5026179;28;20375;-78
2022/03/10 08:21:15;;;;;;;;;;;6.30;96.00;;;;;;4990800;28;19933;-78
2022/03/10 08:23:41;;;;;;;;;;;6.30;94.30;;;;;;5014337;28;19920;-79
2022/03/10 08:26:08;;;;;;;;;;;6.40;94.20;;;;;;5019277;28;19913;-78
2022/03/10 08:28:34;;;;;;;;;;;6.30;94.20;;;;;;5025622;28;19913;-78
2022/03/10 08:30:59;;;;;;;;;;;6.30;93.90;;;;;;5013276;28;19932;-78
2022/03/10 08:33:25;;;;;;;;;;;6.20;94.90;;;;;;5023725;28;19999;-79
2022/03/10 08:35:52;;;;;;;;;;;6.30;94.20;;;;;;5015293;28;19917;-79
2022/03/10 08:38:17;;;;;;;;;;;6.30;94.20;;;;;;5031782;28;19968;-78
2022/03/10 08:40:43;;;;;;;;;;;6.40;93.80;;;;;;5018210;28;19947;-78
2022/03/10 08:43:12;;;;;;;;;;;6.40;93.80;;;;;;5012183;28;20324;-79
2022/03/10 08:45:37;;;;;;;;;;;6.40;93.90;;;;;;5022142;28;19928;-78
2022/03/10 08:48:03;;;;;;;;;;;6.50;94.00;;;;;;5018290;28;20012;-79
2022/03/10 08:50:29;;;;;;;;;;;6.60;94.40;;;;;;5025736;28;19924;-78
2022/03/10 08:52:55;;;;;;;;;;;6.60;92.60;;;;;;5029580;28;20004;-78
2022/03/10 08:55:21;;;;;;;;;;;6.70;92.40;;;;;;5030822;28;19917;-78
2022/03/10 08:57:47;;;;;;;;;;;6.70;93.50;;;;;;5031717;28;20015;-78
2022/03/10 09:00:13;;;;;;;;;;;6.80;92.90;;;;;;5030639;28;20581;-78
2022/03/10 09:02:41;;;;;;;;;;;6.90;91.80;;;;;;5010962;28;20004;-78
2022/03/10 09:05:08;;;;;;;;;;;6.90;92.20;;;;;;4998420;28;19917;-78
2022/03/10 09:07:34;;;;;;;;;;;7.10;91.90;;;;;;5019975;28;19918;-79
2022/03/10 09:09:59;;;;;;;;;;;7.20;91.80;;;;;;5028777;28;19937;-79
2022/03/10 09:12:25;;;;;;;;;;;7.30;90.40;;;;;;5013975;28;20000;-78
2022/03/10 09:14:50;;;;;;;;;;;7.30;91.10;;;;;;5025060;28;20295;-79
2022/03/10 09:17:16;;;;;;;;;;;7.40;90.10;;;;;;5019110;28;19944;-79
2022/03/10 09:19:42;;;;;;;;;;;7.40;90.40;;;;;;5017529;28;19952;-79
2022/03/10 09:22:07;;;;;;;;;;;7.50;87.60;;;;;;5012062;28;20027;-77
2022/03/10 09:24:33;;;;;;;;;;;7.60;87.80;;;;;;5021555;28;19924;-78
2022/03/10 09:26:58;;;;;;;;;;;7.80;88.30;;;;;;5022931;28;19929;-79
2022/03/10 09:29:24;;;;;;;;;;;7.90;86.30;;;;;;5013420;28;19917;-79
2022/03/10 09:31:50;;;;;;;;;;;8.00;85.80;;;;;;5015084;28;19918;-79
2022/03/10 09:34:15;;;;;;;;;;;8.10;82.80;;;;;;5019688;28;19921;-79
2022/03/10 09:36:41;;;;;;;;;;;8.20;84.10;;;;;;5013464;28;19928;-79
2022/03/10 09:39:06;;;;;;;;;;;8.20;81.00;;;;;;5030262;28;19967;-78
2022/03/10 09:41:32;;;;;;;;;;;8.20;82.40;;;;;;5022850;28;20557;-79
2022/03/10 09:43:59;;;;;;;;;;;8.30;81.90;;;;;;5030970;28;19917;-78
2022/03/10 09:46:25;;;;;;;;;;;8.40;81.50;;;;;;5016694;28;20571;-78
2022/03/10 09:48:52;;;;;;;;;;;8.60;80.20;;;;;;5015109;28;19967;-79
2022/03/10 09:51:20;;;;;;;;;;;8.60;79.80;;;;;;5026778;28;19913;-78
2022/03/10 09:53:46;;;;;;;;;;;8.70;79.60;;;;;;5017528;28;19921;-78
2022/03/10 09:56:12;;;;;;;;;;;8.80;78.90;;;;;;5029760;28;19917;-78
2022/03/10 09:58:38;;;;;;;;;;;9.00;78.40;;;;;;5025970;28;20023;-78
2022/03/10 10:01:06;;;;;;;;;;;9.10;77.60;;;;;;5014480;28;20004;-79
2022/03/10 10:03:33;;;;;;;;;;;9.10;75.10;;;;;;5026927;28;19917;-78
2022/03/10 10:05:59;;;;;;;;;;;9.20;75.80;;;;;;5029667;28;19913;-79
2022/03/10 10:08:25;;;;;;;;;;;9.20;73.30;;;;;;5033242;28;20383;-78
2022/03/10 10:10:53;;;;;;;;;;;9.20;73.20;;;;;;5034549;28;19968;-79
2022/03/10 10:13:29;;;;;;;;;;;9.20;73.10;;;;;;5007589;28;20352;-79
2022/03/10 10:15:57;;;;;;;;;;;9.30;73.50;;;;;;5016283;28;19944;-79
2022/03/10 10:18:23;;;;;;;;;;;9.30;70.50;;;;;;5010984;28;19919;-78
2022/03/10 10:20:49;;;;;;;;;;;9.40;70.90;;;;;;5023034;28;19913;-78
2022/03/10 10:23:19;;;;;;;;;;;9.40;73.90;;;;;;4996041;28;20303;-78
2022/03/10 10:25:49;;;;;;;;;;;9.60;70.60;;;;;;5025831;28;20395;-78
2022/03/10 10:28:22;;;;;;;;;;;9.60;71.00;;;;;;5029269;28;19953;-78
2022/03/10 10:30:54;;;;;;;;;;;9.70;68.10;;;;;;5018409;28;20008;-78
2022/03/10 10:33:20;;;;;;;;;;;9.70;67.70;;;;;;5021813;28;19913;-78
2022/03/10 10:35:46;;;;;;;;;;;9.70;66.20;;;;;;5021967;28;20403;-78
2022/03/10 10:38:26;;;;;;;;;;;9.70;69.40;;;;;;5020473;28;19949;-78
2022/03/10 10:40:53;;;;;;;;;;;9.80;69.10;;;;;;5039875;23;19971;-84
2022/03/10 10:43:19;;;;;;;;;;;9.90;63.60;;;;;;5012669;28;19917;-85
2022/03/10 10:45:44;;;;;;;;;;;9.90;64.60;;;;;;5003260;28;20410;-83
2022/03/10 10:48:11;;;;;;;;;;;9.90;62.10;;;;;;5041151;28;19917;-87
2022/03/10 10:50:41;;;;;;;;;;;9.90;62.50;;;;;;5033382;28;19920;-83
2022/03/10 10:53:07;;;;;;;;;;;9.90;62.60;;;;;;5001360;28;20015;-84
2022/03/10 10:55:34;;;;;;;;;;;9.90;60.80;;;;;;5015548;28;20498;-84
2022/03/10 10:58:29;;;;;;;;;;;9.90;62.80;;;;;;5015982;28;19925;-84
2022/03/10 11:00:55;;;;;;;;;;;10.00;62.10;;;;;;5013499;28;19920;-84
2022/03/10 11:03:28;;;;;;;;;;;10.10;63.30;;;;;;5015972;28;19917;-85
2022/03/10 11:05:54;;;;;;;;;;;10.10;61.00;;;;;;5006609;28;19917;-85
2022/03/10 11:08:21;;;;;;;;;;;10.20;61.70;;;;;;5014820;28;19979;-83
2022/03/10 11:10:47;;;;;;;;;;;10.20;61.10;;;;;;5017661;28;20928;-85
2022/03/10 11:13:13;;;;;;;;;;;10.30;63.40;;;;;;5032182;28;21084;-84
2022/03/10 11:15:40;;;;;;;;;;;10.40;64.20;;;;;;5015139;28;20144;-86
2022/03/10 11:18:09;;;;;;;;;;;10.40;63.50;;;;;;5015975;28;19913;-85
2022/03/10 11:20:34;;;;;;;;;;;10.50;63.50;;;;;;5019082;28;19917;-86
2022/03/10 11:23:18;;;;;;;;;;;10.40;60.80;;;;;;5018963;28;19917;-87
2022/03/10 11:25:47;;;;;;;;;;;10.50;62.70;;;;;;5031832;28;19935;-84
2022/03/10 11:28:23;;;;;;;;;;;10.50;63.50;;;;;;5030859;28;19950;-83
2022/03/10 11:30:51;;;;;;;;;;;10.50;60.00;;;;;;5016384;28;19916;-86
2022/03/10 11:33:17;;;;;;;;;;;10.50;60.70;;;;;;5033724;28;19924;-82
2022/03/10 11:35:44;;;;;;;;;;;10.50;59.30;;;;;;5017053;28;20391;-81
2022/03/10 11:38:10;;;;;;;;;;;10.50;59.40;;;;;;5015173;28;20004;-86
2022/03/10 11:40:46;;;;;;;;;;;10.50;58.50;;;;;;5014891;28;20371;-83
2022/03/10 11:43:32;;;;;;;;;;;10.60;58.10;;;;;;5019402;28;20059;-85
2022/03/10 11:46:20;;;;;;;;;;;10.60;58.80;;;;;;4997774;28;19919;-85
2022/03/10 11:49:05;;;;;;;;;;;10.60;55.20;;;;;;5016417;28;19943;-83
2022/03/10 11:51:46;;;;;;;;;;;10.70;57.50;;;;;;5030029;28;19913;-83
2022/03/10 11:54:16;;;;;;;;;;;10.80;57.20;;;;;;5033099;28;19944;-85
2022/03/10 11:56:44;;;;;;;;;;;10.80;54.10;;;;;;5010321;28;19938;-84
2022/03/10 11:59:16;;;;;;;;;;;10.80;52.90;;;;;;5023160;28;19916;-84
2022/03/10 12:01:43;;;;;;;;;;;10.80;54.80;;;;;;5033875;28;19920;-84
2022/03/10 12:04:13;;;;;;;;;;;10.90;56.80;;;;;;5031776;28;19913;-86
2022/03/10 12:06:46;;;;;;;;;;;10.90;57.30;;;;;;5029140;28;19913;-83
2022/03/10 12:09:24;;;;;;;;;;;11.00;57.10;;;;;;5009205;28;19917;-83
2022/03/10 12:11:51;;;;;;;;;;;11.10;57.10;;;;;;5023242;28;19981;-86
2022/03/10 12:14:25;;;;;;;;;;;11.20;60.10;;;;;;5026435;28;19944;-87
2022/03/10 12:16:50;;;;;;;;;;;11.20;56.50;;;;;;5025043;28;20367;-84
2022/03/10 12:19:16;;;;;;;;;;;11.30;54.70;;;;;;5019579;28;19923;-85
2022/03/10 12:21:42;;;;;;;;;;;11.30;53.80;;;;;;5039784;28;19917;-84
2022/03/10 12:24:07;;;;;;;;;;;11.30;55.90;;;;;;5019725;28;19924;-82
2022/03/10 12:26:39;;;;;;;;;;;11.30;52.60;;;;;;5034504;28;19923;-82
2022/03/10 12:29:06;;;;;;;;;;;11.20;55.10;;;;;;5040027;28;19968;-84
2022/03/10 12:31:33;;;;;;;;;;;11.20;55.10;;;;;;5022039;28;19916;-85
2022/03/10 12:34:01;;;;;;;;;;;11.30;56.50;;;;;;5001177;28;19924;-85
2022/03/10 12:36:34;;;;;;;;;;;11.30;53.50;;;;;;5017898;28;19923;-84
2022/03/10 12:39:01;;;;;;;;;;;11.40;51.70;;;;;;5006334;28;19916;-83
2022/03/10 12:41:28;;;;;;;;;;;11.40;52.20;;;;;;5009826;28;19928;-86
2022/03/10 12:43:54;;;;;;;;;;;11.40;52.80;;;;;;5035701;28;20260;-85
2022/03/10 12:46:20;;;;;;;;;;;11.40;53.70;;;;;;5023025;28;19913;-83
2022/03/10 12:48:57;;;;;;;;;;;11.40;53.10;;;;;;5050467;28;20386;-84
2022/03/10 12:51:24;;;;;;;;;;;11.40;52.80;;;;;;5034086;28;19916;-84
2022/03/10 12:53:51;;;;;;;;;;;11.30;54.00;;;;;;5037204;28;19909;-84
2022/03/10 12:56:16;;;;;;;;;;;11.40;51.80;;;;;;5011391;28;20180;-84
2022/03/10 12:58:44;;;;;;;;;;;11.40;50.30;;;;;;5019884;28;20024;-84
2022/03/10 13:01:11;;;;;;;;;;;11.40;47.70;;;;;;5023896;28;20199;-84
2022/03/10 13:03:46;;;;;;;;;;;11.30;47.00;;;;;;5041029;28;19917;-83
2022/03/10 13:06:12;;;;;;;;;;;11.20;49.30;;;;;;5056950;28;19913;-83
2022/03/10 13:08:40;;;;;;;;;;;11.20;50.30;;;;;;5022990;28;19916;-83
2022/03/10 13:11:06;;;;;;;;;;;11.20;53.60;;;;;;5040022;28;19917;-84
2022/03/10 13:13:32;;;;;;;;;;;11.30;52.00;;;;;;5022384;28;20294;-84
2022/03/10 13:15:58;;;;;;;;;;;11.40;53.10;;;;;;5036394;28;19913;-82
2022/03/10 13:18:23;;;;;;;;;;;11.30;50.80;;;;;;5036054;28;19920;-84
2022/03/10 13:20:49;;;;;;;;;;;11.20;51.10;;;;;;5019331;28;19979;-84
2022/03/10 13:23:15;;;;;;;;;;;11.20;49.90;;;;;;5036074;28;19917;-85
2022/03/10 13:25:43;;;;;;;;;;;11.20;49.20;;;;;;5045229;28;19924;-85
2022/03/10 13:28:12;;;;;;;;;;;11.40;50.70;;;;;;5016375;28;19917;-85
2022/03/10 13:30:42;;;;;;;;;;;11.40;47.70;;;;;;5016797;28;19920;-85
2022/03/10 13:33:09;;;;;;;;;;;11.50;46.50;;;;;;5000245;28;20514;-85
2022/03/10 13:35:36;;;;;;;;;;;11.50;45.10;;;;;;4999697;28;19919;-84
2022/03/10 13:38:02;;;;;;;;;;;11.50;46.30;;;;;;5000732;28;19948;-84
2022/03/10 13:40:30;;;;;;;;;;;11.40;46.00;;;;;;5018422;28;19928;-83
2022/03/10 13:42:56;;;;;;;;;;;11.40;47.50;;;;;;5015980;28;19917;-84
2022/03/10 13:45:23;;;;;;;;;;;11.40;48.00;;;;;;5020027;28;19913;-83
2022/03/10 13:47:53;;;;;;;;;;;11.40;50.50;;;;;;5018671;28;20294;-84
2022/03/10 13:50:20;;;;;;;;;;;11.60;47.90;;;;;;5022940;28;19924;-83
2022/03/10 13:52:49;;;;;;;;;;;11.70;46.10;;;;;;5039332;28;19913;-87
2022/03/10 13:55:14;;;;;;;;;;;11.70;44.50;;;;;;5039346;28;19920;-85
2022/03/10 13:57:44;;;;;;;;;;;11.70;42.70;;;;;;5038714;28;19920;-85
2022/03/10 14:00:10;;;;;;;;;;;11.80;43.30;;;;;;5028544;28;20012;-83
2022/03/10 14:02:35;;;;;;;;;;;11.80;45.20;;;;;;5017448;28;20011;-85
2022/03/10 14:05:10;;;;;;;;;;;11.80;47.40;;;;;;5019044;28;20418;-84
2022/03/10 14:07:36;;;;;;;;;;;11.70;46.80;;;;;;5034238;28;20394;-83
2022/03/10 14:10:02;;;;;;;;;;;11.60;46.10;;;;;;5018642;28;19917;-84
2022/03/10 14:12:30;;;;;;;;;;;11.50;45.80;;;;;;5016428;28;19921;-84
2022/03/10 14:14:55;;;;;;;;;;;11.50;46.20;;;;;;5014028;28;19987;-81
2022/03/10 14:17:39;;;;;;;;;;;11.40;46.70;;;;;;5042660;28;20007;-82
2022/03/10 14:20:04;;;;;;;;;;;11.40;47.10;;;;;;5033925;28;19920;-83
2022/03/10 14:22:33;;;;;;;;;;;11.30;46.40;;;;;;5024826;28;19917;-83
2022/03/10 14:24:59;;;;;;;;;;;11.30;47.40;;;;;;5027253;28;20405;-84